createdAt,value
2022-12-27T00:01:03.546Z,0.00
2022-12-27T00:06:03.444Z,0.00
2022-12-27T00:11:03.363Z,0.00
2022-12-27T00:16:03.328Z,0.00
2022-12-27T00:21:03.230Z,0.00
2022-12-27T00:26:03.163Z,0.00
2022-12-27T00:31:03.104Z,0.00
2022-12-27T00:36:03.042Z,0.00
2022-12-27T00:41:02.972Z,0.00
2022-12-27T00:46:02.958Z,0.00
2022-12-27T00:51:02.838Z,0.00
2022-12-27T00:56:02.766Z,0.00
2022-12-27T01:01:02.770Z,0.00
2022-12-27T01:06:02.665Z,0.00
2022-12-27T01:11:02.615Z,0.00
2022-12-27T01:16:02.521Z,0.00
2022-12-27T01:21:02.443Z,0.00
2022-12-27T01:26:02.381Z,0.00
2022-12-27T01:31:02.312Z,0.00
2022-12-27T01:36:02.238Z,0.00
2022-12-27T01:41:02.178Z,0.00
2022-12-27T01:46:02.148Z,0.00
2022-12-27T01:51:02.060Z,0.00
2022-12-27T01:56:02.003Z,0.00
2022-12-27T02:01:02.022Z,0.00
2022-12-27T02:06:01.881Z,0.00
2022-12-27T02:11:01.816Z,0.00
2022-12-27T02:16:01.746Z,0.00
2022-12-27T02:21:01.688Z,0.00
2022-12-27T02:26:01.629Z,0.00
2022-12-27T02:31:01.613Z,0.00
2022-12-27T02:36:01.519Z,0.00
2022-12-27T02:41:01.504Z,0.00
2022-12-27T02:46:01.479Z,0.00
2022-12-27T02:51:01.351Z,0.00
2022-12-27T02:56:01.313Z,0.00
2022-12-27T03:01:01.283Z,0.00
2022-12-27T03:06:01.200Z,0.00
2022-12-27T03:11:01.128Z,0.00
2022-12-27T03:16:01.112Z,0.00
2022-12-27T03:21:01.018Z,0.00
2022-12-27T03:26:00.957Z,0.00
2022-12-27T03:31:00.972Z,0.00
2022-12-27T03:36:00.839Z,0.00
2022-12-27T03:41:00.786Z,0.00
2022-12-27T03:46:00.777Z,0.00
2022-12-27T03:51:00.738Z,0.00
2022-12-27T03:56:00.608Z,0.00
2022-12-27T04:01:00.573Z,0.00
2022-12-27T04:06:00.519Z,0.00
2022-12-27T04:11:00.429Z,0.00
2022-12-27T04:16:00.434Z,0.00
2022-12-27T04:21:00.307Z,0.00
2022-12-27T04:26:00.259Z,0.00
2022-12-27T04:31:00.229Z,0.00
2022-12-27T04:36:04.429Z,0.00
2022-12-27T04:41:01.087Z,0.00
2022-12-27T04:46:00.036Z,0.00
2022-12-27T04:50:59.979Z,0.00
2022-12-27T04:55:59.904Z,0.00
2022-12-27T05:00:59.827Z,0.00
2022-12-27T05:05:59.769Z,0.00
2022-12-27T05:10:59.708Z,0.00
2022-12-27T05:15:59.663Z,0.00
2022-12-27T05:20:59.620Z,0.00
2022-12-27T05:25:59.535Z,0.00
2022-12-27T05:30:59.493Z,0.00
2022-12-27T05:35:59.405Z,0.00
2022-12-27T05:40:59.342Z,0.00
2022-12-27T05:45:59.275Z,0.00
2022-12-27T05:50:59.226Z,0.00
2022-12-27T05:55:59.157Z,0.00
2022-12-27T06:00:59.131Z,0.00
2022-12-27T06:05:59.035Z,0.00
2022-12-27T06:10:58.985Z,0.00
2022-12-27T06:15:58.924Z,0.00
2022-12-27T06:20:58.862Z,0.00
2022-12-27T06:25:58.795Z,0.00
2022-12-27T06:30:58.745Z,0.00
2022-12-27T06:35:58.674Z,0.00
2022-12-27T06:40:58.616Z,0.00
2022-12-27T06:45:58.617Z,0.00
2022-12-27T06:50:58.492Z,5.62
2022-12-27T06:55:58.431Z,5.62
2022-12-27T07:00:58.382Z,11.25
2022-12-27T07:05:58.302Z,16.88
2022-12-27T07:10:58.246Z,28.12
2022-12-27T07:15:58.182Z,39.38
2022-12-27T07:20:58.125Z,45.00
2022-12-27T07:25:58.065Z,61.88
2022-12-27T07:30:58.005Z,73.12
2022-12-27T07:35:57.944Z,84.38
2022-12-27T07:40:57.883Z,101.25
2022-12-27T07:45:57.842Z,106.88
2022-12-27T07:50:57.763Z,118.12
2022-12-27T07:55:57.715Z,157.50
2022-12-27T08:00:57.708Z,196.88
2022-12-27T08:05:57.574Z,208.12
2022-12-27T08:11:05.185Z,225.00
2022-12-27T08:15:58.454Z,219.38
2022-12-27T08:20:57.421Z,230.62
2022-12-27T08:25:57.337Z,286.88
2022-12-27T08:30:57.334Z,320.62
2022-12-27T08:35:57.209Z,298.12
2022-12-27T08:40:57.177Z,309.38
2022-12-27T08:45:57.119Z,331.88
2022-12-27T08:50:57.033Z,371.25
2022-12-27T08:55:56.976Z,410.62
2022-12-27T09:00:56.932Z,427.50
2022-12-27T09:05:56.872Z,489.38
2022-12-27T09:10:56.813Z,489.38
2022-12-27T09:15:56.783Z,450.00
2022-12-27T09:20:56.712Z,455.62
2022-12-27T09:25:56.638Z,410.62
2022-12-27T09:30:56.723Z,416.25
2022-12-27T09:35:56.523Z,433.12
2022-12-27T09:40:56.470Z,461.25
2022-12-27T09:45:56.460Z,495.00
2022-12-27T09:50:56.350Z,511.88
2022-12-27T09:55:56.290Z,540.00
2022-12-27T10:00:56.237Z,646.88
2022-12-27T10:05:56.648Z,551.25
2022-12-27T10:10:56.120Z,534.38
2022-12-27T10:15:56.086Z,573.75
2022-12-27T10:20:55.996Z,562.50
2022-12-27T10:25:55.913Z,585.00
2022-12-27T10:30:55.923Z,562.50
2022-12-27T10:35:55.804Z,568.12
2022-12-27T10:40:55.745Z,601.88
2022-12-27T10:45:55.681Z,624.38
2022-12-27T10:50:55.643Z,607.50
2022-12-27T10:55:55.554Z,646.88
2022-12-27T11:00:55.546Z,646.88
2022-12-27T11:05:55.435Z,624.38
2022-12-27T11:10:55.377Z,686.25
2022-12-27T11:15:58.492Z,776.25
2022-12-27T11:20:55.247Z,630.00
2022-12-27T11:25:55.205Z,686.25
2022-12-27T11:30:55.134Z,562.50
2022-12-27T11:35:55.055Z,641.25
2022-12-27T11:40:55.003Z,787.50
2022-12-27T11:45:54.935Z,601.88
2022-12-27T11:50:54.866Z,388.12
2022-12-27T11:55:54.798Z,343.12
2022-12-27T12:00:55.629Z,264.38
2022-12-27T12:05:54.675Z,348.75
2022-12-27T12:10:54.633Z,202.50
2022-12-27T12:15:54.565Z,225.00
2022-12-27T12:20:54.493Z,180.00
2022-12-27T12:25:54.429Z,191.25
2022-12-27T12:30:54.369Z,174.38
2022-12-27T12:35:54.310Z,236.25
2022-12-27T12:40:54.246Z,168.75
2022-12-27T12:45:54.250Z,180.00
2022-12-27T12:50:54.130Z,236.25
2022-12-27T12:55:54.048Z,343.12
2022-12-27T13:00:54.003Z,354.38
2022-12-27T13:05:53.933Z,393.75
2022-12-27T13:10:53.888Z,371.25
2022-12-27T13:15:53.828Z,326.25
2022-12-27T13:20:53.747Z,264.38
2022-12-27T13:25:53.681Z,281.25
2022-12-27T13:30:53.669Z,264.38
2022-12-27T13:35:53.552Z,270.00
2022-12-27T13:40:53.487Z,258.75
2022-12-27T13:45:53.478Z,219.38
2022-12-27T13:50:53.407Z,230.62
2022-12-27T13:55:53.296Z,185.62
2022-12-27T14:00:53.243Z,163.12
2022-12-27T14:05:53.190Z,202.50
2022-12-27T14:11:00.565Z,185.62
2022-12-27T14:15:54.164Z,174.38
2022-12-27T14:20:53.000Z,163.12
2022-12-27T14:25:52.941Z,112.50
2022-12-27T14:30:52.942Z,84.38
2022-12-27T14:35:52.826Z,90.00
2022-12-27T14:40:52.772Z,67.50
2022-12-27T14:45:57.444Z,67.50
2022-12-27T14:50:53.632Z,50.62
2022-12-27T14:55:52.559Z,50.62
2022-12-27T15:00:52.500Z,33.75
2022-12-27T15:05:52.490Z,22.50
2022-12-27T15:10:52.379Z,16.88
2022-12-27T15:15:52.346Z,11.25
2022-12-27T15:20:52.258Z,5.62
2022-12-27T15:25:52.178Z,5.62
2022-12-27T15:30:52.188Z,0.00
2022-12-27T15:35:52.117Z,0.00
2022-12-27T15:40:52.002Z,0.00
2022-12-27T15:45:51.949Z,0.00
2022-12-27T15:50:51.883Z,0.00
2022-12-27T15:55:51.812Z,0.00
2022-12-27T16:00:51.772Z,0.00
2022-12-27T16:05:51.693Z,0.00
2022-12-27T16:10:51.640Z,0.00
2022-12-27T16:15:51.601Z,0.00
2022-12-27T16:20:51.502Z,0.00
2022-12-27T16:25:51.479Z,0.00
2022-12-27T16:30:51.409Z,0.00
2022-12-27T16:35:51.338Z,0.00
2022-12-27T16:40:51.303Z,0.00
2022-12-27T16:45:51.221Z,0.00
2022-12-27T16:50:51.174Z,0.00
2022-12-27T16:55:51.118Z,0.00
2022-12-27T17:00:51.072Z,0.00
2022-12-27T17:06:31.435Z,0.00
2022-12-27T17:10:51.951Z,0.00
2022-12-27T17:15:50.897Z,0.00
2022-12-27T17:20:50.832Z,0.00
2022-12-27T17:25:50.771Z,0.00
2022-12-27T17:30:50.723Z,0.00
2022-12-27T17:35:50.671Z,0.00
2022-12-27T17:40:50.634Z,0.00
2022-12-27T17:45:50.583Z,0.00
2022-12-27T17:50:50.520Z,0.00
2022-12-27T17:55:50.423Z,0.00
2022-12-27T18:00:50.462Z,0.00
2022-12-27T18:05:50.327Z,0.00
2022-12-27T18:10:50.281Z,0.00
2022-12-27T18:15:50.201Z,0.00
2022-12-27T18:20:50.141Z,0.00
2022-12-27T18:25:50.103Z,0.00
2022-12-27T18:30:50.051Z,0.00
2022-12-27T18:35:49.995Z,0.00
2022-12-27T18:40:53.022Z,0.00
2022-12-27T18:45:49.877Z,0.00
2022-12-27T18:50:49.800Z,0.00
2022-12-27T18:55:49.740Z,0.00
2022-12-27T19:00:49.739Z,0.00
2022-12-27T19:05:49.602Z,0.00
2022-12-27T19:10:49.550Z,0.00
2022-12-27T19:15:49.530Z,0.00
2022-12-27T19:20:49.435Z,0.00
2022-12-27T19:25:49.374Z,0.00
2022-12-27T19:30:49.310Z,0.00
2022-12-27T19:35:49.252Z,0.00
2022-12-27T19:40:49.190Z,0.00
2022-12-27T19:45:49.204Z,0.00
2022-12-27T19:50:49.109Z,0.00
2022-12-27T19:55:49.000Z,0.00
2022-12-27T20:00:49.012Z,0.00
2022-12-27T20:06:13.093Z,0.00
2022-12-27T20:10:49.827Z,0.00
2022-12-27T20:15:48.765Z,0.00
2022-12-27T20:20:48.697Z,0.00
2022-12-27T20:25:48.639Z,0.00
2022-12-27T20:30:48.570Z,0.00
2022-12-27T20:35:48.511Z,0.00
2022-12-27T20:40:48.450Z,0.00
2022-12-27T20:45:48.451Z,0.00
2022-12-27T20:50:48.331Z,0.00
2022-12-27T20:55:48.268Z,0.00
2022-12-27T21:00:48.211Z,0.00
2022-12-27T21:05:48.140Z,0.00
2022-12-27T21:10:48.098Z,0.00
2022-12-27T21:15:48.028Z,0.00
2022-12-27T21:20:47.977Z,0.00
2022-12-27T21:25:47.898Z,0.00
2022-12-27T21:30:47.871Z,0.00
2022-12-27T21:35:47.778Z,0.00
2022-12-27T21:40:47.731Z,0.00
2022-12-27T21:45:47.687Z,0.00
2022-12-27T21:50:47.630Z,0.00
2022-12-27T21:55:47.551Z,0.00
2022-12-27T22:00:47.509Z,0.00
2022-12-27T22:05:47.451Z,0.00
2022-12-27T22:10:47.368Z,0.00
2022-12-27T22:15:47.333Z,0.00
2022-12-27T22:20:47.292Z,0.00
2022-12-27T22:25:47.197Z,0.00
2022-12-27T22:30:47.157Z,0.00
2022-12-27T22:35:47.077Z,0.00
2022-12-27T22:40:47.128Z,0.00
2022-12-27T22:45:53.447Z,0.00
2022-12-27T22:50:47.898Z,0.00
2022-12-27T22:55:46.847Z,0.00
2022-12-27T23:00:46.787Z,0.00
2022-12-27T23:05:46.734Z,0.00
2022-12-27T23:10:46.655Z,0.00
2022-12-27T23:15:46.617Z,0.00
2022-12-27T23:21:21.332Z,0.00
2022-12-27T23:25:47.476Z,0.00
2022-12-27T23:30:46.424Z,0.00
2022-12-27T23:35:46.385Z,0.00
2022-12-27T23:40:46.310Z,0.00
2022-12-27T23:45:46.256Z,0.00
2022-12-27T23:50:46.194Z,0.00
2022-12-27T23:55:46.153Z,0.00
